Wimbledon, North Dakota
Current Conditions -  °F | °C
As of 11:56 PM on Thursday 27 Nov 2014 (Local Time) from KJMS Reporting Station
Overcast Overcast  
Wind Chill: -9°   Ceiling: 3200
Heat Index:   Visibility: 7mi
Dew Point:   Wind: 10mph
Humidity: 83%   Direction: 120°ESE
Pressure: 29.97"   Gusts: NA
Location:  47.17°N, 98.46°W
Report Text: KJMS 280556Z AUTO 12009KT 7SM OVC032 M14/M17 A2997 RMK AO2 SLP190 60004 T11441167 11144 21150 411441333 56023
Loading
Personal Weather Stations






























Interactive Weather Map New forecast layout! Learn more

10-Day Weather Forecast

Advertisements
Track Severe Weather on mobile